首页
METAR-TAF:

METAR-TAF

机场 :

诺加利斯, 亞利桑那州, 美国

纬度: 31-25-15N, 经度: 110-50-45W, 海拔: 1198米

当前天气观测

该预报发布于13分钟前的07:54 UTC
风速3节,风向东转东南
温度 11°C
湿度 47%
气压 1015 hPa
能見度: 16.1公里
天空无云

METAR: KOLS 030754Z AUTO 11003KT 10SM CLR 11/00 A2997 RMK AO2 SLP098 T01060000 /

时间: 01:07 (08:07 UTC)

预报

该预报发布于2小时和30分钟前的05:37 UTC
预报有效从03日的 06点(UTC)到 04日的 06点(UTC)
风速4节,风向多变
能見度: 10公里
天空无云
从 03日的 1700点(UTC)
风速8节,风向南转西南
能見度: 10公里
少量云层高于8000英尺
从 03日的 2000点(UTC)
风速13节,风向西南,有时为22节阵风
能見度: 10公里
散云层高于8000英尺
从 04日的 0200点(UTC)
风速8节,风向南转西南
能見度: 10公里
天空无云

TAF: KOLS 030537Z 0306/0406 VRB04KT P6SM SKC FM031700 20008KT P6SM FEW080 FM032000 22013G22KT P6SM SCT080 FM040200 21008KT P6SM SKC

超过4000个机场的气象观测和天气预报(METAR&TAF报告)。

可查询的气象台以黄色和红色小点在地图上表示。

将鼠标移到小点上方,可查看气象台名称。

然后点击查看天气观测和预报。

如需切换地图:点击带黑十字的绿色按钮放大地图;点击带横线的绿色按钮缩小地图;或者点击绿色箭头查看邻近地区的地图。


METAR-TAF: